createdAt,value
2022-11-16T00:00:19.421Z,9.55
2022-11-16T00:02:48.128Z,10.85
2022-11-16T00:05:15.404Z,10.75
2022-11-16T00:07:42.341Z,10.60
2022-11-16T00:12:39.784Z,11.50
2022-11-16T00:15:20.258Z,10.32
2022-11-16T00:17:50.798Z,9.75
2022-11-16T00:20:36.151Z,10.88
2022-11-16T00:23:04.144Z,11.23
2022-11-16T00:25:31.607Z,10.20
2022-11-16T00:28:08.547Z,9.55
2022-11-16T00:30:43.289Z,12.73
2022-11-16T00:33:22.373Z,14.43
2022-11-16T00:35:53.114Z,12.82
2022-11-16T00:38:20.543Z,10.45
2022-11-16T00:40:47.541Z,9.65
2022-11-16T00:45:45.220Z,9.32
2022-11-16T00:48:12.679Z,11.25
2022-11-16T00:50:40.800Z,12.65
2022-11-16T00:53:11.999Z,12.23
2022-11-16T00:55:39.552Z,11.73
2022-11-16T00:58:06.627Z,7.63
2022-11-16T01:00:33.773Z,9.95
2022-11-16T01:03:02.320Z,12.48
2022-11-16T01:05:29.249Z,9.80
2022-11-16T01:10:25.345Z,7.55
2022-11-16T01:12:54.000Z,8.43
2022-11-16T01:15:23.402Z,6.90
2022-11-16T01:17:51.189Z,9.55
2022-11-16T01:20:23.900Z,9.20
2022-11-16T01:22:51.098Z,7.15
2022-11-16T01:25:18.138Z,7.80
2022-11-16T01:27:45.029Z,9.05
2022-11-16T01:30:18.954Z,8.48
2022-11-16T01:32:57.254Z,9.35
2022-11-16T01:35:24.251Z,8.60
2022-11-16T01:37:53.689Z,6.07
2022-11-16T01:40:21.226Z,6.40
2022-11-16T01:42:51.652Z,7.20
2022-11-16T01:45:30.314Z,8.73
2022-11-16T01:47:58.991Z,8.32
2022-11-16T01:50:32.653Z,6.00
2022-11-16T01:53:05.715Z,6.85
2022-11-16T01:55:41.611Z,7.38
2022-11-16T01:58:28.729Z,9.38
2022-11-16T02:01:02.008Z,10.13
2022-11-16T02:03:40.629Z,8.98
2022-11-16T02:06:26.549Z,9.60
2022-11-16T02:09:28.626Z,11.00
2022-11-16T02:12:26.321Z,7.75
2022-11-16T02:15:05.583Z,10.93
2022-11-16T02:17:47.823Z,6.88
2022-11-16T02:20:48.890Z,9.05
2022-11-16T02:23:52.761Z,8.05
2022-11-16T02:27:05.512Z,9.98
2022-11-16T02:29:45.821Z,7.32
2022-11-16T02:32:32.962Z,7.40
2022-11-16T02:35:15.108Z,8.80
2022-11-16T02:37:51.213Z,8.55
2022-11-16T02:40:22.050Z,8.70
2022-11-16T02:42:59.428Z,13.07
2022-11-16T02:45:31.966Z,8.15
2022-11-16T02:48:05.004Z,8.70
2022-11-16T02:50:34.603Z,9.75
2022-11-16T02:53:02.411Z,7.97
2022-11-16T02:55:36.463Z,9.73
2022-11-16T02:58:09.598Z,11.48
2022-11-16T03:00:59.299Z,8.18
2022-11-16T03:03:50.938Z,9.73
2022-11-16T03:06:30.330Z,9.20
2022-11-16T03:09:03.301Z,12.00
2022-11-16T03:11:56.156Z,11.13
2022-11-16T03:14:26.627Z,12.52
2022-11-16T03:16:57.642Z,15.20
2022-11-16T03:19:49.003Z,17.70
2022-11-16T03:22:24.411Z,12.55
2022-11-16T03:24:51.532Z,15.25
2022-11-16T03:27:30.365Z,15.07
2022-11-16T03:30:10.892Z,17.70
2022-11-16T03:33:03.044Z,17.88
2022-11-16T03:35:54.962Z,21.63
2022-11-16T03:38:24.710Z,21.70
2022-11-16T03:40:56.600Z,22.55
2022-11-16T03:43:26.911Z,19.38
2022-11-16T03:45:56.464Z,18.85
2022-11-16T03:48:23.961Z,20.15
2022-11-16T03:50:52.874Z,22.15
2022-11-16T03:53:20.569Z,18.38
2022-11-16T03:55:49.933Z,21.50
2022-11-16T03:58:18.564Z,22.25
2022-11-16T04:00:46.020Z,25.25
2022-11-16T04:03:13.007Z,21.65
2022-11-16T04:05:58.757Z,23.75
2022-11-16T04:08:44.097Z,22.73
2022-11-16T04:11:33.089Z,20.25
2022-11-16T04:14:19.289Z,19.08
2022-11-16T04:17:04.631Z,26.50
2022-11-16T04:19:56.767Z,22.33
2022-11-16T04:22:48.970Z,23.98
2022-11-16T04:25:30.633Z,19.27
2022-11-16T04:28:16.473Z,17.55
2022-11-16T04:31:19.456Z,21.90
2022-11-16T04:34:12.000Z,20.65
2022-11-16T04:37:03.461Z,22.10
2022-11-16T04:39:31.583Z,17.33
2022-11-16T04:42:19.199Z,19.77
2022-11-16T04:45:10.698Z,21.45
2022-11-16T04:47:48.091Z,17.88
2022-11-16T04:50:15.646Z,24.67
2022-11-16T04:52:42.786Z,19.15
2022-11-16T04:55:13.405Z,20.75
2022-11-16T04:57:41.291Z,18.70
2022-11-16T05:00:09.060Z,18.58
2022-11-16T05:02:41.356Z,20.42
2022-11-16T05:05:09.099Z,19.92
2022-11-16T05:07:41.166Z,23.98
2022-11-16T05:10:17.350Z,21.33
2022-11-16T05:12:44.410Z,21.40
2022-11-16T05:17:39.041Z,22.90
2022-11-16T05:20:30.294Z,24.73
2022-11-16T05:23:02.182Z,21.95
2022-11-16T05:25:36.811Z,20.42
2022-11-16T05:28:07.103Z,26.88
2022-11-16T05:30:38.061Z,26.73
2022-11-16T05:35:35.253Z,22.33
2022-11-16T05:40:30.327Z,24.55
2022-11-16T05:42:58.608Z,24.00
2022-11-16T05:45:28.290Z,21.08
2022-11-16T05:47:57.354Z,24.48
2022-11-16T05:50:24.059Z,22.13
2022-11-16T05:53:03.501Z,24.77
2022-11-16T05:55:30.300Z,20.27
2022-11-16T05:57:56.985Z,24.70
2022-11-16T06:00:25.295Z,20.85
2022-11-16T06:02:53.886Z,20.20
2022-11-16T06:05:25.899Z,22.30
2022-11-16T06:07:54.306Z,22.83
2022-11-16T06:10:21.591Z,23.15
2022-11-16T06:12:50.374Z,22.25
2022-11-16T06:15:17.866Z,21.48
2022-11-16T06:20:12.445Z,22.20
2022-11-16T06:22:40.221Z,24.85
2022-11-16T06:25:08.194Z,19.42
2022-11-16T06:27:40.438Z,25.05
2022-11-16T06:30:09.072Z,32.35
2022-11-16T06:32:36.178Z,29.45
2022-11-16T06:35:04.837Z,26.85
2022-11-16T06:37:34.011Z,22.70
2022-11-16T06:40:00.859Z,24.33
2022-11-16T06:42:31.035Z,27.48
2022-11-16T06:44:59.251Z,27.23
2022-11-16T06:47:30.113Z,26.98
2022-11-16T06:50:00.592Z,31.45
2022-11-16T06:52:27.351Z,25.20
2022-11-16T06:54:55.461Z,25.42
2022-11-16T06:57:22.394Z,29.13
2022-11-16T07:02:16.693Z,31.23
2022-11-16T07:04:44.884Z,23.33
2022-11-16T07:09:39.781Z,27.65
2022-11-16T07:12:07.011Z,21.33
2022-11-16T07:14:37.448Z,23.95
2022-11-16T07:17:09.493Z,20.83
2022-11-16T07:19:37.088Z,26.02
2022-11-16T07:22:04.934Z,25.55
2022-11-16T07:24:32.774Z,21.70
2022-11-16T07:26:59.795Z,21.50
2022-11-16T07:29:30.690Z,20.25
2022-11-16T07:32:19.037Z,19.25
2022-11-16T07:35:10.239Z,18.30
2022-11-16T07:37:39.084Z,21.88
2022-11-16T07:40:08.122Z,18.15
2022-11-16T07:42:35.978Z,19.15
2022-11-16T07:45:13.019Z,16.83
2022-11-16T07:47:52.193Z,18.63
2022-11-16T07:50:26.065Z,18.75
2022-11-16T07:52:55.595Z,13.65
2022-11-16T07:55:25.543Z,13.45
2022-11-16T07:57:53.604Z,12.27
2022-11-16T08:00:21.136Z,9.75
2022-11-16T08:02:57.166Z,9.13
2022-11-16T08:05:25.281Z,10.10
2022-11-16T08:10:23.208Z,10.10
2022-11-16T08:12:50.322Z,7.88
2022-11-16T08:15:19.128Z,9.48
2022-11-16T08:17:46.042Z,8.98
2022-11-16T08:20:13.246Z,9.20
2022-11-16T08:22:41.083Z,8.70
2022-11-16T08:25:09.586Z,7.70
2022-11-16T08:27:38.282Z,7.68
2022-11-16T08:30:09.823Z,8.13
2022-11-16T08:32:38.166Z,8.60
2022-11-16T08:35:05.721Z,8.55
2022-11-16T08:37:32.513Z,8.02
2022-11-16T08:42:26.102Z,8.32
2022-11-16T08:44:53.907Z,6.88
2022-11-16T08:47:21.129Z,6.20
2022-11-16T08:49:58.075Z,6.40
2022-11-16T08:52:27.253Z,5.57
2022-11-16T08:54:55.144Z,6.32
2022-11-16T08:59:53.761Z,4.22
2022-11-16T09:02:25.388Z,6.60
2022-11-16T09:04:53.111Z,5.15
2022-11-16T09:07:20.373Z,4.30
2022-11-16T09:09:47.201Z,4.43
2022-11-16T09:14:40.681Z,6.80
2022-11-16T09:19:34.068Z,8.35
2022-11-16T09:24:27.404Z,23.75
2022-11-16T09:26:56.696Z,4.65
2022-11-16T09:29:23.435Z,4.05
2022-11-16T09:31:50.072Z,4.60
2022-11-16T09:34:17.068Z,4.63
2022-11-16T09:36:43.784Z,7.30
2022-11-16T09:42:32.538Z,5.25
2022-11-16T09:45:04.758Z,5.03
2022-11-16T09:47:40.453Z,4.30
2022-11-16T09:50:31.161Z,14.20
2022-11-16T09:53:06.106Z,5.45
2022-11-16T09:55:37.879Z,5.38
2022-11-16T09:58:12.946Z,5.03
2022-11-16T10:00:47.300Z,4.95
2022-11-16T10:03:15.262Z,8.63
2022-11-16T10:06:03.748Z,5.72
2022-11-16T10:08:45.437Z,5.53
2022-11-16T10:11:12.236Z,6.05
2022-11-16T10:14:08.264Z,6.18
2022-11-16T10:16:58.336Z,3.72
2022-11-16T10:19:30.966Z,5.28
2022-11-16T10:22:41.120Z,4.55
2022-11-16T10:25:16.228Z,9.32
2022-11-16T10:27:49.276Z,7.30
2022-11-16T10:30:21.141Z,3.70
2022-11-16T10:32:54.424Z,3.42
2022-11-16T10:35:45.407Z,4.65
2022-11-16T10:38:19.261Z,7.43
2022-11-16T10:41:04.485Z,6.30
2022-11-16T10:43:33.195Z,5.70
2022-11-16T10:46:19.419Z,7.55
2022-11-16T10:49:08.636Z,4.60
2022-11-16T10:51:35.425Z,5.18
2022-11-16T10:56:41.387Z,6.50
2022-11-16T10:59:38.452Z,4.78
2022-11-16T11:02:31.849Z,8.32
2022-11-16T11:05:17.825Z,5.35
2022-11-16T11:08:07.617Z,6.35
2022-11-16T11:10:39.652Z,6.50
2022-11-16T11:13:10.519Z,6.32
2022-11-16T11:15:39.451Z,4.38
2022-11-16T11:18:23.373Z,6.38
2022-11-16T11:21:07.018Z,6.00
2022-11-16T11:23:52.351Z,6.55
2022-11-16T11:26:36.999Z,6.28
2022-11-16T11:29:29.726Z,6.40
2022-11-16T11:32:04.164Z,8.00
2022-11-16T11:34:39.655Z,4.95
2022-11-16T11:37:38.236Z,8.55
2022-11-16T11:40:17.005Z,6.72
2022-11-16T11:42:58.891Z,7.70
2022-11-16T11:45:32.811Z,5.10
2022-11-16T11:48:07.246Z,6.95
2022-11-16T11:50:39.052Z,6.88
2022-11-16T11:53:42.987Z,12.93
2022-11-16T11:56:12.363Z,6.00
2022-11-16T11:58:41.068Z,5.63
2022-11-16T12:01:22.220Z,7.18
2022-11-16T12:04:07.720Z,5.65
2022-11-16T12:07:05.151Z,7.43
2022-11-16T12:09:40.710Z,11.52
2022-11-16T12:12:41.861Z,7.43
2022-11-16T12:15:35.580Z,6.78
2022-11-16T12:18:18.052Z,9.40
2022-11-16T12:21:09.129Z,8.18
2022-11-16T12:23:55.535Z,9.50
2022-11-16T12:26:47.443Z,6.20
2022-11-16T12:29:31.065Z,6.00
2022-11-16T12:32:18.214Z,8.25
2022-11-16T12:34:58.531Z,9.35
2022-11-16T12:37:37.112Z,6.07
2022-11-16T12:40:12.853Z,10.30
2022-11-16T12:43:17.936Z,4.60
2022-11-16T12:45:57.288Z,5.63
2022-11-16T12:48:36.667Z,5.95
2022-11-16T12:51:31.816Z,7.07
2022-11-16T12:54:22.923Z,5.10
2022-11-16T12:57:04.946Z,6.63
2022-11-16T12:59:40.451Z,8.35
2022-11-16T13:02:52.019Z,11.02
2022-11-16T13:05:44.197Z,5.60
2022-11-16T13:08:34.085Z,10.70
2022-11-16T13:11:15.510Z,5.05
2022-11-16T13:13:46.846Z,4.72
2022-11-16T13:16:20.446Z,4.97
2022-11-16T13:18:47.433Z,4.55
2022-11-16T13:21:37.624Z,5.72
2022-11-16T13:24:26.312Z,6.55
2022-11-16T13:27:16.124Z,4.70
2022-11-16T13:30:04.099Z,6.20
2022-11-16T13:35:18.222Z,3.30
2022-11-16T13:37:47.086Z,6.85
2022-11-16T13:40:28.705Z,5.60
2022-11-16T13:43:10.794Z,8.70
2022-11-16T13:45:49.715Z,6.07
2022-11-16T13:48:21.023Z,6.28
2022-11-16T13:50:53.646Z,3.88
2022-11-16T13:56:48.888Z,4.65
2022-11-16T13:59:16.487Z,5.47
2022-11-16T14:02:00.844Z,5.13
2022-11-16T14:04:40.723Z,5.72
2022-11-16T14:07:29.261Z,4.95
2022-11-16T14:09:56.166Z,7.00
2022-11-16T14:12:38.092Z,3.83
2022-11-16T14:15:18.472Z,11.10
2022-11-16T14:18:23.238Z,6.22
2022-11-16T14:20:57.785Z,8.10
2022-11-16T14:23:36.760Z,9.82
2022-11-16T14:26:18.858Z,5.60
2022-11-16T14:29:10.882Z,6.82
2022-11-16T14:31:56.635Z,4.70
2022-11-16T14:34:40.239Z,4.72
2022-11-16T14:37:28.419Z,8.15
2022-11-16T14:40:19.110Z,10.77
2022-11-16T14:45:48.470Z,6.88
2022-11-16T14:48:20.462Z,5.45
2022-11-16T14:51:13.377Z,8.40
2022-11-16T14:53:47.839Z,5.15
2022-11-16T14:56:17.474Z,5.15
2022-11-16T14:58:59.104Z,4.90
2022-11-16T15:01:29.283Z,7.22
2022-11-16T15:04:02.419Z,6.07
2022-11-16T15:06:33.496Z,9.45
2022-11-16T15:09:03.523Z,8.63
2022-11-16T15:11:54.116Z,9.75
2022-11-16T15:14:34.171Z,4.10
2022-11-16T15:17:00.888Z,4.53
2022-11-16T15:19:30.707Z,4.13
2022-11-16T15:22:01.870Z,6.30
2022-11-16T15:24:32.188Z,8.75
2022-11-16T15:27:34.562Z,5.82
2022-11-16T15:30:03.875Z,5.90
2022-11-16T15:32:32.057Z,4.18
2022-11-16T15:35:03.986Z,6.18
2022-11-16T15:37:32.275Z,4.10
2022-11-16T15:40:00.560Z,5.97
2022-11-16T15:42:28.051Z,4.55
2022-11-16T15:44:55.552Z,7.78
2022-11-16T15:47:23.587Z,9.10
2022-11-16T15:49:52.959Z,4.00
2022-11-16T15:52:46.005Z,6.28
2022-11-16T15:55:38.927Z,5.90
2022-11-16T15:58:26.321Z,5.20
2022-11-16T16:00:54.508Z,7.60
2022-11-16T16:03:25.985Z,9.38
2022-11-16T16:05:54.340Z,21.00
2022-11-16T16:08:30.403Z,18.40
2022-11-16T16:11:05.614Z,12.35
2022-11-16T16:13:38.483Z,11.80
2022-11-16T16:16:30.186Z,12.15
2022-11-16T16:19:03.808Z,15.20
2022-11-16T16:21:53.372Z,9.88
2022-11-16T16:24:40.952Z,11.95
2022-11-16T16:27:14.931Z,7.72
2022-11-16T16:29:41.773Z,11.30
2022-11-16T16:34:42.136Z,15.98
2022-11-16T16:37:11.787Z,13.88
2022-11-16T16:39:39.813Z,7.82
2022-11-16T16:42:11.556Z,8.75
2022-11-16T16:44:39.072Z,13.00
2022-11-16T16:47:06.058Z,10.50
2022-11-16T16:51:59.507Z,7.95
2022-11-16T16:54:28.295Z,11.25
2022-11-16T16:56:57.201Z,11.77
2022-11-16T16:59:24.996Z,10.90
2022-11-16T17:01:52.026Z,13.50
2022-11-16T17:04:19.447Z,11.18
2022-11-16T17:06:48.005Z,12.68
2022-11-16T17:09:15.160Z,10.50
2022-11-16T17:11:42.223Z,10.52
2022-11-16T17:14:42.763Z,9.07
2022-11-16T17:17:11.706Z,10.10
2022-11-16T17:19:38.725Z,11.30
2022-11-16T17:22:05.518Z,10.38
2022-11-16T17:24:34.181Z,7.35
2022-11-16T17:27:00.918Z,8.85
2022-11-16T17:29:27.651Z,13.85
2022-11-16T17:31:54.760Z,9.25
2022-11-16T17:34:21.482Z,10.32
2022-11-16T17:36:48.281Z,13.77
2022-11-16T17:39:15.937Z,14.38
2022-11-16T17:41:42.693Z,12.73
2022-11-16T17:44:09.437Z,17.50
2022-11-16T17:46:36.508Z,14.85
2022-11-16T17:49:03.270Z,12.00
2022-11-16T17:51:30.312Z,13.57
2022-11-16T17:56:28.695Z,11.80
2022-11-16T17:58:58.214Z,13.45
2022-11-16T18:01:25.883Z,15.15
2022-11-16T18:03:52.704Z,10.73
2022-11-16T18:06:22.032Z,11.07
2022-11-16T18:08:49.371Z,10.90
2022-11-16T18:11:24.758Z,9.13
2022-11-16T18:14:00.582Z,14.68
2022-11-16T18:16:30.888Z,11.88
2022-11-16T18:19:03.172Z,10.80
2022-11-16T18:21:30.433Z,11.88
2022-11-16T18:23:59.288Z,12.70
2022-11-16T18:26:26.106Z,9.10
2022-11-16T18:28:53.198Z,9.20
2022-11-16T18:31:22.183Z,7.20
2022-11-16T18:33:49.303Z,8.15
2022-11-16T18:36:17.777Z,7.82
2022-11-16T18:38:45.323Z,10.32
2022-11-16T18:41:12.175Z,9.82
2022-11-16T18:43:39.531Z,12.05
2022-11-16T18:46:06.428Z,13.02
2022-11-16T18:51:01.768Z,19.55
2022-11-16T18:53:29.880Z,19.17
2022-11-16T18:55:58.317Z,20.77
2022-11-16T18:58:49.279Z,19.60
2022-11-16T19:01:14.770Z,36.55
2022-11-16T19:03:41.844Z,22.75
2022-11-16T19:08:38.282Z,16.30
2022-11-16T19:11:14.250Z,19.48
2022-11-16T19:13:43.114Z,21.13
2022-11-16T19:16:12.487Z,22.30
2022-11-16T19:18:39.401Z,21.88
2022-11-16T19:23:45.044Z,30.05
2022-11-16T19:26:13.674Z,18.48
2022-11-16T19:28:42.510Z,17.92
2022-11-16T19:31:16.279Z,15.98
2022-11-16T19:33:44.527Z,18.23
2022-11-16T19:36:11.605Z,10.18
2022-11-16T19:41:07.080Z,25.95
2022-11-16T19:43:34.762Z,39.67
2022-11-16T19:46:12.562Z,35.45
2022-11-16T19:48:39.551Z,17.38
2022-11-16T19:53:35.192Z,13.63
2022-11-16T19:56:03.503Z,11.68
2022-11-16T19:58:32.069Z,13.82
2022-11-16T20:01:07.713Z,13.98
2022-11-16T20:03:35.218Z,8.88
2022-11-16T20:06:17.037Z,9.23
2022-11-16T20:08:48.139Z,8.00
2022-11-16T20:11:27.971Z,13.30
2022-11-16T20:13:56.512Z,7.25
2022-11-16T20:16:25.958Z,7.43
2022-11-16T20:18:53.560Z,9.27
2022-11-16T20:21:32.933Z,9.60
2022-11-16T20:24:06.107Z,8.80
2022-11-16T20:26:35.907Z,8.55
2022-11-16T20:29:03.491Z,16.05
2022-11-16T20:31:32.344Z,10.95
2022-11-16T20:34:01.317Z,11.00
2022-11-16T20:36:30.006Z,13.98
2022-11-16T20:38:58.078Z,15.63
2022-11-16T20:41:27.272Z,11.95
2022-11-16T20:43:56.099Z,12.73
2022-11-16T20:46:25.741Z,12.45
2022-11-16T20:48:52.674Z,12.45
2022-11-16T20:53:48.081Z,10.27
2022-11-16T20:56:16.685Z,10.80
2022-11-16T20:58:43.609Z,12.20
2022-11-16T21:03:42.480Z,16.98
2022-11-16T21:06:09.237Z,18.55
2022-11-16T21:08:37.801Z,18.20
2022-11-16T21:11:21.393Z,17.65
2022-11-16T21:14:07.469Z,15.18
2022-11-16T21:16:34.690Z,13.95
2022-11-16T21:19:01.805Z,16.00
2022-11-16T21:21:29.435Z,10.52
2022-11-16T21:23:56.319Z,10.82
2022-11-16T21:26:26.116Z,17.13
2022-11-16T21:28:53.548Z,13.55
2022-11-16T21:31:22.467Z,10.52
2022-11-16T21:33:49.207Z,11.43
2022-11-16T21:36:18.233Z,8.48
2022-11-16T21:38:45.538Z,14.07
2022-11-16T21:41:14.147Z,12.57
2022-11-16T21:43:41.280Z,8.25
2022-11-16T21:46:11.365Z,9.10
2022-11-16T21:48:38.909Z,9.65
2022-11-16T21:51:08.092Z,10.27
2022-11-16T21:53:35.993Z,10.70
2022-11-16T21:56:04.099Z,14.60
2022-11-16T21:58:30.871Z,10.65
2022-11-16T22:00:59.630Z,11.25
2022-11-16T22:03:31.646Z,10.52
2022-11-16T22:06:19.707Z,10.95
2022-11-16T22:08:47.669Z,16.13
2022-11-16T22:11:15.860Z,11.50
2022-11-16T22:13:43.330Z,17.23
2022-11-16T22:16:15.188Z,13.73
2022-11-16T22:18:41.891Z,12.48
2022-11-16T22:21:09.290Z,14.30
2022-11-16T22:23:36.922Z,11.48
2022-11-16T22:26:09.743Z,9.43
2022-11-16T22:28:37.514Z,13.02
2022-11-16T22:31:12.857Z,8.13
2022-11-16T22:33:40.031Z,12.77
2022-11-16T22:36:09.280Z,15.15
2022-11-16T22:38:36.569Z,10.85
2022-11-16T22:41:03.412Z,11.35
2022-11-16T22:43:31.404Z,14.57
2022-11-16T22:45:59.587Z,12.35
2022-11-16T22:48:38.279Z,10.60
2022-11-16T22:51:25.239Z,11.40
2022-11-16T22:54:00.149Z,8.95
2022-11-16T22:56:28.449Z,9.07
2022-11-16T22:58:55.753Z,9.48
2022-11-16T23:01:23.186Z,12.60
2022-11-16T23:03:50.661Z,9.15
2022-11-16T23:06:17.598Z,6.90
2022-11-16T23:08:44.615Z,13.32
2022-11-16T23:14:20.882Z,8.52
2022-11-16T23:16:48.321Z,7.20
2022-11-16T23:19:36.925Z,5.90
2022-11-16T23:22:22.599Z,10.32
2022-11-16T23:25:08.071Z,6.47
2022-11-16T23:28:00.103Z,11.20
2022-11-16T23:30:27.379Z,4.35
2022-11-16T23:32:54.230Z,4.93
2022-11-16T23:35:21.206Z,5.88
2022-11-16T23:40:22.172Z,4.30
2022-11-16T23:43:07.326Z,5.68
2022-11-16T23:45:35.178Z,5.07
2022-11-16T23:48:02.226Z,5.43
2022-11-16T23:52:55.633Z,4.72
2022-11-16T23:55:23.085Z,3.10
2022-11-16T23:57:50.682Z,5.85
